Time;durP1;ratioP1;P1;durP2;ratioP2;P2;SDS_P1;SDS_P2;PMS_P1;PMS_P2;Temp;Humidity;BMP_temperature;BMP_pressure;BME280_temperature;BME280_humidity;BME280_pressure;Samples;Min_cycle;Max_cycle;Signal;HPM_P1;HPM_P2
2022/07/10 00:00:14;;;;;;;3.80;3.40;;;;;;;15.53;nan;101223.41;4992682;28;20061;-74
2022/07/10 00:02:41;;;;;;;4.40;3.97;;;;;;;15.50;nan;101227.25;4992559;28;20037;-74
2022/07/10 00:05:08;;;;;;;4.85;3.90;;;;;;;15.48;nan;101222.06;5008672;28;20418;-75
2022/07/10 00:07:33;;;;;;;4.35;3.92;;;;;;;15.45;nan;101224.25;5010607;28;20557;-75
2022/07/10 00:09:58;;;;;;;4.90;4.40;;;;;;;15.40;nan;101222.06;5010760;28;20037;-74
2022/07/10 00:12:24;;;;;;;5.15;4.40;;;;;;;15.37;nan;101224.22;5009901;28;20034;-75
2022/07/10 00:14:49;;;;;;;4.78;4.15;;;;;;;15.35;nan;101232.41;5010139;28;20533;-75
2022/07/10 00:17:14;;;;;;;4.65;3.72;;;;;;;15.32;nan;101230.06;5009968;28;20121;-75
2022/07/10 00:19:41;;;;;;;4.78;4.25;;;;;;;15.29;nan;101230.41;4993074;28;20052;-75
2022/07/10 00:22:06;;;;;;;;;;;;;;;15.25;nan;101232.56;4992397;28;20044;-75
2022/07/10 00:24:32;;;;;;;;;;;;;;;15.23;nan;101225.72;4992015;28;20321;-75
2022/07/10 00:26:59;;;;;;;6.45;4.68;;;;;;;15.23;nan;101231.03;4992588;28;19921;-75
2022/07/10 00:29:25;;;;;;;6.35;4.80;;;;;;;15.37;nan;101227.72;5008932;28;20832;-74
2022/07/10 00:31:51;;;;;;;4.82;4.13;;;;;;;15.29;nan;101231.22;5009864;28;20045;-75
2022/07/10 00:34:17;;;;;;;;;;;;;;;15.23;nan;101231.03;5009892;28;20044;-75
2022/07/10 00:36:43;;;;;;;9.40;6.17;;;;;;;15.19;nan;101235.06;5010088;28;20374;-75
2022/07/10 00:39:09;;;;;;;6.05;5.20;;;;;;;15.18;nan;101230.72;4992221;28;20041;-75
2022/07/10 00:41:35;;;;;;;4.95;4.07;;;;;;;15.15;nan;101226.53;5009533;28;20037;-75
2022/07/10 00:44:02;;;;;;;4.65;4.10;;;;;;;15.13;nan;101227.72;4993649;28;20042;-75
2022/07/10 00:46:30;;;;;;;5.20;4.30;;;;;;;15.10;nan;101230.72;5023906;28;20083;-75
2022/07/10 00:48:57;;;;;;;5.35;4.85;;;;;;;15.24;nan;101235.38;4991580;28;20400;-75
2022/07/10 00:51:28;;;;;;;4.70;3.90;;;;;;;15.15;nan;101233.72;4989196;28;20036;-75
2022/07/10 00:53:56;;;;;;;4.10;3.05;;;;;;;15.11;nan;101246.53;4991005;28;20199;-75
2022/07/10 00:56:27;;;;;;;5.57;4.90;;;;;;;15.10;nan;101247.50;5009657;28;20116;-75
2022/07/10 00:58:55;;;;;;;;;;;;;;;15.07;nan;101250.50;5010183;28;20039;-75
2022/07/10 01:01:23;;;;;;;5.05;4.13;;;;;;;15.08;nan;101246.84;4990947;28;20375;-75
2022/07/10 01:03:50;;;;;;;5.07;4.47;;;;;;;15.08;nan;101253.00;4992215;28;20129;-74
2022/07/10 01:06:17;;;;;;;6.20;5.18;;;;;;;15.06;nan;101251.50;4991606;28;20034;-75
2022/07/10 01:08:45;;;;;;;5.82;5.22;;;;;;;15.05;nan;101250.66;5009312;28;20033;-75
2022/07/10 01:11:13;;;;;;;6.95;4.82;;;;;;;15.05;nan;101253.34;5009577;28;20034;-75
2022/07/10 01:13:40;;;;;;;5.60;4.70;;;;;;;15.10;nan;101249.34;4991427;28;20111;-75
2022/07/10 01:16:06;;;;;;;7.20;5.22;;;;;;;15.12;nan;101250.03;4991227;28;20026;-75
2022/07/10 01:18:32;;;;;;;7.18;5.45;;;;;;;15.12;nan;101250.84;4991971;28;20419;-75
2022/07/10 01:20:58;;;;;;;6.03;5.43;;;;;;;15.08;nan;101253.00;5008926;28;20037;-75
2022/07/10 01:23:24;;;;;;;5.72;5.07;;;;;;;15.02;nan;101240.34;5009409;28;20423;-74
2022/07/10 01:25:53;;;;;;;6.45;5.30;;;;;;;15.01;nan;101251.16;5009867;28;20270;-75
2022/07/10 01:28:22;;;;;;;7.47;5.93;;;;;;;14.99;nan;101247.81;4990981;28;20034;-75
2022/07/10 01:30:49;;;;;;;6.30;5.50;;;;;;;14.97;nan;101242.69;5008801;28;20034;-75
2022/07/10 01:33:14;;;;;;;9.27;6.45;;;;;;;14.93;nan;101243.16;5009664;28;20380;-75
2022/07/10 01:35:41;;;;;;;8.57;6.20;;;;;;;14.88;nan;101245.47;5011143;28;20104;-75
2022/07/10 01:38:07;;;;;;;6.25;5.65;;;;;;;14.83;nan;101248.63;4995948;28;20045;-75
2022/07/10 01:40:33;;;;;;;6.82;5.20;;;;;;;14.78;nan;101250.94;5014876;28;20026;-75
2022/07/10 01:42:59;;;;;;;4.75;4.20;;;;;;;14.74;nan;101257.56;5007451;28;20038;-75
2022/07/10 01:45:26;;;;;;;5.78;4.90;;;;;;;14.71;nan;101260.56;5014928;28;20038;-75
2022/07/10 01:47:53;;;;;;;5.32;4.55;;;;;;;14.67;nan;101267.19;5012746;28;20037;-75
2022/07/10 01:50:22;;;;;;;4.65;4.00;;;;;;;14.63;nan;101270.19;4994690;28;20026;-75
2022/07/10 01:52:48;;;;;;;7.32;5.03;;;;;;;14.60;nan;101267.84;5013103;28;20037;-75
2022/07/10 01:55:14;;;;;;;5.72;5.00;;;;;;;14.59;nan;101274.16;5012994;28;20038;-75
2022/07/10 01:57:40;;;;;;;4.65;4.20;;;;;;;14.56;nan;101269.16;5013264;28;20064;-75
2022/07/10 02:00:07;;;;;;;6.72;4.43;;;;;;;14.53;nan;101263.28;4995048;28;20044;-75
2022/07/10 02:02:33;;;;;;;7.22;4.18;;;;;;;14.51;nan;101262.59;4994730;28;20124;-75
2022/07/10 02:04:59;;;;;;;4.72;3.92;;;;;;;14.52;nan;101262.44;5013465;28;20121;-75
2022/07/10 02:07:26;;;;;;;5.05;3.60;;;;;;;14.48;nan;101258.44;5012291;28;20095;-75
2022/07/10 02:09:54;;;;;;;4.50;3.55;;;;;;;14.49;nan;101270.75;4995219;28;20495;-75
2022/07/10 02:12:20;;;;;;;3.78;3.22;;;;;;;14.50;nan;101269.75;4994443;28;20029;-75
2022/07/10 02:14:46;;;;;;;4.40;2.95;;;;;;;14.53;nan;101271.25;4995319;28;20407;-75
2022/07/10 02:17:16;;;;;;;3.85;3.10;;;;;;;14.57;nan;101278.81;5012889;28;20040;-75
2022/07/10 02:19:42;;;;;;;4.55;2.70;;;;;;;14.63;nan;101275.53;5012272;28;20101;-75
2022/07/10 02:22:08;;;;;;;4.60;2.78;;;;;;;14.72;nan;101279.03;4994161;28;20032;-75
2022/07/10 02:24:35;;;;;;;3.60;2.95;;;;;;;14.82;nan;101279.72;5012499;28;20057;-75
2022/07/10 02:27:01;;;;;;;4.38;3.20;;;;;;;14.89;nan;101279.91;4995010;28;20053;-75
2022/07/10 02:29:27;;;;;;;4.93;2.80;;;;;;;14.96;nan;101278.28;5012612;28;20029;-75
2022/07/10 02:31:53;;;;;;;4.15;3.30;;;;;;;14.99;nan;101275.31;5012238;28;20061;-75
2022/07/10 02:34:21;;;;;;;5.50;3.42;;;;;;;14.98;nan;101278.94;4994141;28;20061;-75
2022/07/10 02:36:47;;;;;;;5.97;3.60;;;;;;;15.00;nan;101284.13;4994501;28;20030;-74
2022/07/10 02:39:13;;;;;;;4.93;3.08;;;;;;;15.03;nan;101283.78;4994621;28;20199;-75
2022/07/10 02:41:39;;;;;;;4.75;2.80;;;;;;;15.07;nan;101279.81;4994422;28;20038;-76
2022/07/10 02:44:05;;;;;;;5.32;3.25;;;;;;;15.12;nan;101282.81;5000711;28;20040;-74
2022/07/10 02:46:31;;;;;;;4.88;3.00;;;;;;;15.17;nan;101293.81;5028648;28;20034;-75
2022/07/10 02:48:57;;;;;;;4.53;3.03;;;;;;;15.20;nan;101290.00;5012649;28;20145;-75
2022/07/10 02:51:23;;;;;;;4.38;2.67;;;;;;;15.25;nan;101285.84;5011724;28;20050;-75
2022/07/10 02:53:50;;;;;;;4.45;2.58;;;;;;;15.30;nan;101290.66;4994885;28;20030;-75
2022/07/10 02:56:16;;;;;;;4.40;2.72;;;;;;;15.32;nan;101288.69;5011018;28;20037;-75
2022/07/10 02:58:42;;;;;;;5.45;2.85;;;;;;;15.34;nan;101291.19;5011840;28;20042;-75
2022/07/10 03:01:08;;;;;;;4.47;2.60;;;;;;;15.32;nan;101287.84;4994230;28;20114;-75
2022/07/10 03:03:34;;;;;;;7.13;3.38;;;;;;;15.26;nan;101289.34;4994420;28;20038;-75
2022/07/10 03:06:00;;;;;;;4.57;2.97;;;;;;;15.25;nan;101290.31;4992907;28;20518;-75
2022/07/10 03:08:26;;;;;;;3.13;2.17;;;;;;;15.29;nan;101295.16;5009743;28;20049;-75
2022/07/10 03:10:52;;;;;;;3.15;2.30;;;;;;;15.34;nan;101291.19;5010760;28;20586;-75
2022/07/10 03:13:19;;;;;;;3.70;2.10;;;;;;;15.35;nan;101279.53;5011740;28;20034;-75
2022/07/10 03:15:45;;;;;;;4.43;2.70;;;;;;;15.29;nan;101283.69;5011592;28;20041;-75
2022/07/10 03:18:11;;;;;;;2.60;2.20;;;;;;;15.25;nan;101282.34;5010889;28;20038;-75
2022/07/10 03:20:36;;;;;;;3.75;2.50;;;;;;;15.23;nan;101285.19;4993937;28;20030;-75
2022/07/10 03:23:03;;;;;;;3.00;2.25;;;;;;;15.25;nan;101291.19;4993886;28;20376;-75
2022/07/10 03:25:28;;;;;;;4.30;2.50;;;;;;;15.29;nan;101286.34;5011542;28;20115;-75
2022/07/10 03:27:55;;;;;;;4.63;2.40;;;;;;;15.30;nan;101293.34;5011668;28;20046;-75
2022/07/10 03:30:22;;;;;;;4.88;2.35;;;;;;;15.35;nan;101292.84;4993013;28;20582;-76
2022/07/10 03:32:48;;;;;;;2.95;1.80;;;;;;;15.37;nan;101294.34;5011315;28;20041;-75
2022/07/10 03:35:14;;;;;;;2.65;2.08;;;;;;;15.41;nan;101295.69;4993332;28;20502;-75
2022/07/10 03:37:41;;;;;;;3.92;2.10;;;;;;;15.43;nan;101290.22;5008740;28;20052;-75
2022/07/10 03:40:09;;;;;;;4.30;2.28;;;;;;;15.42;nan;101297.38;5007523;28;20033;-75
2022/07/10 03:42:35;;;;;;;4.45;2.20;;;;;;;15.42;nan;101300.03;4991711;28;20041;-75
2022/07/10 03:45:04;;;;;;;3.30;2.42;;;;;;;15.36;nan;101298.03;5008801;28;20451;-75
2022/07/10 03:47:30;;;;;;;6.65;2.67;;;;;;;15.32;nan;101290.50;5003713;28;20522;-75
2022/07/10 03:49:57;;;;;;;4.32;2.30;;;;;;;15.27;nan;101302.50;5008443;28;20061;-75
2022/07/10 03:52:23;;;;;;;3.65;2.03;;;;;;;15.25;nan;101301.84;5007004;28;20042;-75
2022/07/10 03:54:49;;;;;;;3.75;1.90;;;;;;;15.25;nan;101301.00;5007498;28;20465;-76
2022/07/10 03:59:59;;;;;;;3.63;2.40;;;;;;;15.14;nan;101303.97;5008793;28;20289;-75
2022/07/10 04:02:25;;;;;;;2.25;1.88;;;;;;;15.10;nan;101308.78;5006451;28;20185;-75
2022/07/10 04:04:51;;;;;;;4.35;2.00;;;;;;;15.07;nan;101304.63;5008085;28;20407;-75
2022/07/10 04:07:17;;;;;;;4.13;2.10;;;;;;;15.03;nan;101305.94;4990697;28;20045;-75
2022/07/10 04:09:43;;;;;;;3.45;1.80;;;;;;;14.96;nan;101304.91;4990767;28;20041;-75
2022/07/10 04:12:10;;;;;;;2.95;1.80;;;;;;;14.91;nan;101299.22;4989426;28;20052;-75
2022/07/10 04:14:36;;;;;;;3.33;1.92;;;;;;;14.85;nan;101305.22;5006013;28;20111;-75
2022/07/10 04:17:03;;;;;;;2.45;1.60;;;;;;;14.81;nan;101298.53;5007837;28;20570;-75
2022/07/10 04:19:29;;;;;;;3.45;1.98;;;;;;;14.77;nan;101297.19;5009090;28;20037;-74
2022/07/10 04:21:55;;;;;;;3.47;1.80;;;;;;;14.78;nan;101299.69;5008790;28;20499;-75
2022/07/10 04:24:24;;;;;;;3.85;1.98;;;;;;;14.82;nan;101300.19;5007212;28;20038;-74
2022/07/10 04:26:51;;;;;;;2.83;1.70;;;;;;;14.90;nan;101300.25;5004594;28;20358;-74
2022/07/10 04:29:16;;;;;;;3.45;1.90;;;;;;;14.95;nan;101291.78;4990859;28;20038;-74
2022/07/10 04:31:42;;;;;;;2.30;1.42;;;;;;;14.98;nan;101296.75;5008420;28;20441;-74
2022/07/10 04:34:09;;;;;;;2.78;1.20;;;;;;;15.02;nan;101296.28;4991146;28;20048;-74
2022/07/10 04:36:36;;;;;;;2.40;1.55;;;;;;;15.05;nan;101303.94;5008608;28;20050;-74
2022/07/10 04:39:04;;;;;;;3.58;1.70;;;;;;;15.03;nan;101305.94;4992033;28;20069;-74
2022/07/10 04:41:31;;;;;;;3.95;1.80;;;;;;;14.95;nan;101308.56;5008132;28;20454;-74
2022/07/10 04:43:57;;;;;;;4.47;1.98;;;;;;;14.85;nan;101307.88;5009865;28;20376;-74
2022/07/10 04:46:23;;;;;;;5.28;2.05;;;;;;;14.78;nan;101313.00;5007720;28;20026;-74
2022/07/10 04:48:50;;;;;;;3.72;2.10;;;;;;;14.80;nan;101302.19;5008973;28;20045;-74
2022/07/10 04:51:16;;;;;;;3.90;2.03;;;;;;;14.82;nan;101311.66;4989359;28;20038;-74
2022/07/10 04:53:42;;;;;;;3.05;1.75;;;;;;;14.90;nan;101316.22;5008584;28;20541;-74
2022/07/10 04:56:08;;;;;;;3.83;2.15;;;;;;;14.98;nan;101318.91;5008469;28;20030;-74
2022/07/10 04:58:34;;;;;;;2.72;1.50;;;;;;;15.04;nan;101322.75;5008074;28;20534;-74
2022/07/10 05:01:01;;;;;;;3.70;1.88;;;;;;;15.12;nan;101325.44;5008485;28;20406;-74
2022/07/10 05:03:29;;;;;;;3.05;1.80;;;;;;;15.14;nan;101325.28;5010405;28;20267;-75
2022/07/10 05:05:55;;;;;;;6.32;1.70;;;;;;;15.19;nan;101337.13;5011397;28;20453;-74
2022/07/10 05:08:20;;;;;;;5.70;1.80;;;;;;;15.27;nan;101338.97;4992422;28;20117;-74
2022/07/10 05:10:48;;;;;;;4.65;1.70;;;;;;;15.36;nan;101340.66;5013078;28;20132;-74
2022/07/10 05:13:15;;;;;;;3.80;1.70;;;;;;;15.37;nan;101330.81;5019644;28;20041;-74
2022/07/10 05:15:41;;;;;;;4.35;1.83;;;;;;;15.44;nan;101340.66;5016602;28;20034;-74
2022/07/10 05:18:07;;;;;;;5.03;2.00;;;;;;;15.38;nan;101345.84;5003888;28;20048;-75
2022/07/10 05:20:35;;;;;;;4.65;1.58;;;;;;;15.43;nan;101344.34;5025630;28;20513;-74
2022/07/10 05:23:02;;;;;;;3.55;1.55;;;;;;;15.46;nan;101348.50;5002015;28;20060;-75
2022/07/10 05:25:30;;;;;;;3.33;1.58;;;;;;;15.43;nan;101341.66;5006391;28;20041;-74
2022/07/10 05:27:56;;;;;;;2.97;1.45;;;;;;;15.42;nan;101345.34;5006012;28;20053;-75
2022/07/10 05:30:25;;;;;;;5.10;1.63;;;;;;;15.48;nan;101347.34;4994723;28;20404;-74
2022/07/10 05:32:52;;;;;;;3.72;1.40;;;;;;;15.50;nan;101358.69;5010654;28;20061;-74
2022/07/10 05:35:18;;;;;;;3.25;1.40;;;;;;;15.58;nan;101355.19;5009971;28;20030;-74
2022/07/10 05:37:45;;;;;;;5.45;1.35;;;;;;;15.56;nan;101354.50;5010036;28;20129;-74
2022/07/10 05:40:11;;;;;;;3.95;1.55;;;;;;;15.62;nan;101361.03;5027259;28;20375;-75
2022/07/10 05:42:38;;;;;;;3.97;1.52;;;;;;;15.67;nan;101361.38;4998139;28;20539;-74
2022/07/10 05:45:05;;;;;;;3.75;1.30;;;;;;;15.75;nan;101356.06;4994791;28;20704;-74
2022/07/10 05:47:32;;;;;;;2.05;1.30;;;;;;;15.84;nan;101359.59;4980072;28;20503;-75
2022/07/10 05:49:59;;;;;;;3.03;1.40;;;;;;;16.03;nan;101363.75;4992044;28;20038;-75
2022/07/10 05:52:25;;;;;;;4.40;1.23;;;;;;;16.08;nan;101369.41;4990950;28;20040;-75
2022/07/10 05:54:56;;;;;;;5.47;1.48;;;;;;;16.37;nan;101370.72;4991622;28;20064;-75
2022/07/10 05:57:22;;;;;;;;;;;;;;;16.65;nan;101357.84;5010062;28;20038;-75
2022/07/10 05:59:48;;;;;;;3.42;1.30;;;;;;;16.83;nan;101365.63;4991572;28;19913;-75
2022/07/10 06:02:16;;;;;;;4.30;1.35;;;;;;;16.96;nan;101369.44;4990771;28;20034;-76
2022/07/10 06:04:42;;;;;;;2.60;1.05;;;;;;;17.37;nan;101369.22;4992170;28;20034;-76
2022/07/10 06:07:09;;;;;;;2.83;1.00;;;;;;;17.68;nan;101376.41;5009856;28;20048;-76
2022/07/10 06:09:35;;;;;;;3.85;1.20;;;;;;;17.58;nan;101376.63;4992721;28;20030;-75
2022/07/10 06:12:02;;;;;;;4.50;1.30;;;;;;;17.80;nan;101385.72;4991970;28;20497;-76
2022/07/10 06:14:27;;;;;;;2.90;1.00;;;;;;;17.93;nan;101387.81;4992224;28;20121;-75
2022/07/10 06:16:53;;;;;;;2.70;1.10;;;;;;;17.75;nan;101373.84;5010424;28;20141;-76
2022/07/10 06:19:19;;;;;;;3.60;1.33;;;;;;;17.96;nan;101384.75;5009934;28;20047;-76
2022/07/10 06:21:45;;;;;;;2.97;1.25;;;;;;;18.27;nan;101366.94;5012052;28;20072;-76
2022/07/10 06:24:13;;;;;;;3.88;1.40;;;;;;;18.48;nan;101372.41;5007468;28;20395;-76
2022/07/10 06:26:40;;;;;;;3.35;0.90;;;;;;;18.80;nan;101373.09;4995440;28;20046;-76
2022/07/10 06:29:08;;;;;;;3.72;0.90;;;;;;;19.07;nan;101374.31;5012297;28;20041;-76
2022/07/10 06:31:34;;;;;;;3.28;1.08;;;;;;;19.29;nan;101376.00;5011942;28;20034;-76
2022/07/10 06:34:00;;;;;;;3.15;1.20;;;;;;;19.39;nan;101380.25;4995326;28;20065;-74
2022/07/10 06:36:27;;;;;;;3.13;1.30;;;;;;;19.64;nan;101381.56;4993853;28;20126;-76
2022/07/10 06:38:53;;;;;;;3.40;1.15;;;;;;;19.72;nan;101383.31;5011552;28;20503;-75
2022/07/10 06:41:20;;;;;;;3.00;1.00;;;;;;;19.58;nan;101376.94;4994650;28;20114;-76
2022/07/10 06:43:46;;;;;;;2.38;0.98;;;;;;;19.71;nan;101374.44;5007877;28;20037;-76
2022/07/10 06:46:11;;;;;;;4.35;1.20;;;;;;;20.05;nan;101367.50;5015529;28;20083;-76
2022/07/10 06:48:40;;;;;;;2.28;0.80;;;;;;;20.20;nan;101363.91;5012690;28;20038;-76
2022/07/10 06:51:07;;;;;;;3.30;0.90;;;;;;;20.34;nan;101362.97;4994112;28;20045;-76
2022/07/10 06:53:33;;;;;;;2.47;0.73;;;;;;;20.57;nan;101360.06;4994352;28;20037;-76
2022/07/10 06:55:58;;;;;;;2.45;0.70;;;;;;;20.88;nan;101367.69;5012224;28;20034;-76
2022/07/10 06:58:24;;;;;;;;;;;;;;;20.93;nan;101377.84;4994055;28;20061;-77
2022/07/10 07:00:51;;;;;;;2.15;0.75;;;;;;;21.14;nan;101376.88;5011609;28;19928;-77
2022/07/10 07:03:16;;;;;;;1.37;0.60;;;;;;;21.42;nan;101380.31;5011177;28;20408;-76
2022/07/10 07:05:43;;;;;;;3.58;0.90;;;;;;;21.17;nan;101381.88;5012117;28;20034;-76
2022/07/10 07:08:09;;;;;;;2.53;0.70;;;;;;;21.47;nan;101385.09;5010126;28;20437;-76
2022/07/10 07:10:35;;;;;;;1.00;0.50;;;;;;;21.66;nan;101388.03;4992430;28;20790;-76
2022/07/10 07:13:02;;;;;;;1.10;0.50;;;;;;;21.94;nan;101385.19;4989507;28;20957;-76
2022/07/10 07:15:29;;;;;;;2.53;0.60;;;;;;;22.36;nan;101386.66;4978774;28;20482;-76
2022/07/10 07:18:08;;;;;;;2.20;0.60;;;;;;;22.33;nan;101386.25;4993313;28;20774;-76
2022/07/10 07:23:19;;;;;;;2.70;0.70;;;;;;;21.61;nan;101392.16;5012681;28;20040;-76
2022/07/10 07:25:48;;;;;;;2.72;0.95;;;;;;;21.47;nan;101392.34;4994188;28;20450;-76
2022/07/10 07:28:19;;;;;;;;;;;;;;;21.62;nan;101390.31;4994451;28;20041;-73
2022/07/10 07:30:45;;;;;;;;;;;;;;;21.69;nan;101388.47;4994907;28;19917;-72
2022/07/10 07:33:10;;;;;;;;;;;;;;;21.85;nan;101385.38;4994467;28;19936;-73
2022/07/10 07:35:36;;;;;;;1.80;0.60;;;;;;;22.19;nan;101393.47;5010641;28;19918;-76
2022/07/10 07:38:02;;;;;;;;;;;;;;;22.23;nan;101394.75;5012394;28;20041;-72
2022/07/10 07:40:28;;;;;;;;;;;;;;;22.17;nan;101384.78;4993961;28;19992;-73
2022/07/10 07:42:54;;;;;;;;;;;;;;;22.24;nan;101383.78;4994437;28;19913;-73
2022/07/10 07:45:19;;;;;;;;;;;;;;;22.61;nan;101388.69;5021293;28;20015;-72
2022/07/10 07:47:46;;;;;;;;;;;;;;;22.94;nan;101383.22;5031574;28;20391;-73
2022/07/10 07:50:12;;;;;;;;;;;;;;;23.23;nan;101383.75;4990869;28;19914;-74
2022/07/10 07:52:37;;;;;;;;;;;;;;;23.36;nan;101378.31;4974883;28;20415;-74
2022/07/10 07:55:03;;;;;;;;;;;;;;;23.44;nan;101380.75;5011048;28;19921;-73
2022/07/10 07:57:28;;;;;;;;;;;;;;;23.62;nan;101382.72;5012396;28;19918;-74
2022/07/10 07:59:53;;;;;;;;;;;;;;;24.21;nan;101375.22;5012783;28;19917;-74
2022/07/10 08:02:18;;;;;;;;;;;;;;;24.71;nan;101385.16;4994468;28;19924;-74
2022/07/10 08:04:44;;;;;;;;;;;;;;;25.30;nan;101385.53;4996170;28;19917;-74
2022/07/10 08:07:10;;;;;;;;;;;;;;;25.90;nan;101385.50;5013881;28;20500;-74
2022/07/10 08:09:35;;;;;;;;;;;;;;;26.22;nan;101393.34;5014036;28;20387;-74
2022/07/10 08:12:00;;;;;;;;;;;;;;;25.21;nan;101383.13;5012999;28;19944;-73
2022/07/10 08:14:26;;;;;;;;;;;;;;;24.45;nan;101373.53;5010439;28;20110;-73
2022/07/10 08:16:51;;;;;;;;;;;;;;;23.98;nan;101383.97;4991348;28;20700;-73
2022/07/10 08:19:16;;;;;;;;;;;;;;;23.81;nan;101385.53;4993957;28;20383;-74
2022/07/10 08:21:41;;;;;;;;;;;;;;;23.91;nan;101383.19;4993835;28;20169;-73
2022/07/10 08:24:07;;;;;;;;;;;;;;;23.80;nan;101376.59;5011259;28;19914;-74
2022/07/10 08:26:32;;;;;;;;;;;;;;;24.47;nan;101367.94;5011390;28;19913;-73
2022/07/10 08:28:57;;;;;;;;;;;;;;;25.52;nan;101369.59;5011988;28;19920;-74
2022/07/10 08:31:22;;;;;;;;;;;;;;;26.25;nan;101372.00;4993950;28;19914;-75
2022/07/10 08:33:48;;;;;;;;;;;;;;;27.12;nan;101364.91;5012231;28;19967;-74
2022/07/10 08:36:15;;;;;;;;;;;;;;;28.32;nan;101370.28;4992714;28;19913;-75
2022/07/10 08:38:40;;;;;;;;;;;;;;;28.50;nan;101358.31;4993144;28;19928;-74
2022/07/10 08:41:06;;;;;;;;;;;;;;;27.93;nan;101357.44;5010906;28;19918;-74
2022/07/10 08:43:31;;;;;;;;;;;;;;;26.15;nan;101362.78;5005411;28;20384;-74
2022/07/10 08:45:58;;;;;;;;;;;;;;;24.84;nan;101357.97;5016909;28;19921;-73
2022/07/10 08:48:24;;;;;;;;;;;;;;;24.19;nan;101363.81;5011130;28;19955;-74
2022/07/10 08:50:53;;;;;;;2.60;0.60;;;;;;;23.72;nan;101369.56;4993085;28;19968;-73
2022/07/10 08:53:30;;;;;;;2.42;1.05;;;;;;;24.68;nan;101374.81;5010976;28;20509;-73
2022/07/10 08:55:56;;;;;;;3.05;0.60;;;;;;;24.90;nan;101376.00;5010493;28;20025;-73
2022/07/10 08:58:22;;;;;;;1.73;0.57;;;;;;;25.46;nan;101374.06;5010258;28;20057;-73
2022/07/10 09:00:48;;;;;;;2.33;0.55;;;;;;;26.06;nan;101367.75;5010684;28;20403;-74
2022/07/10 09:03:13;;;;;;;1.45;0.55;;;;;;;26.64;nan;101363.38;5011360;28;20041;-74
2022/07/10 09:05:39;;;;;;;1.95;0.50;;;;;;;27.37;nan;101370.03;4992865;28;20463;-74
2022/07/10 09:08:21;;;;;;;2.58;0.80;;;;;;;27.91;nan;101361.47;4993212;28;20523;-74
2022/07/10 09:10:47;;;;;;;0.85;0.40;;;;;;;28.55;nan;101367.34;5011100;28;20038;-74
2022/07/10 09:13:13;;;;;;;1.25;0.45;;;;;;;29.09;nan;101368.59;4993448;28;20117;-74
2022/07/10 09:15:38;;;;;;;2.67;0.50;;;;;;;29.43;nan;101347.44;5010615;28;20133;-74
2022/07/10 09:18:08;;;;;;;1.35;0.43;;;;;;;29.34;nan;101349.81;5011452;28;20111;-74
2022/07/10 09:20:39;;;;;;;1.73;0.50;;;;;;;27.93;nan;101352.00;5010889;28;20045;-73
2022/07/10 09:23:25;;;;;;;1.77;0.50;;;;;;;28.57;nan;101359.75;5010521;28;20076;-76
2022/07/10 09:25:52;;;;;;;1.13;0.40;;;;;;;29.60;nan;101344.56;5010932;28;20117;-74
2022/07/10 09:28:19;;;;;;;1.08;0.40;;;;;;;30.39;nan;101354.78;5010668;28;20037;-76
2022/07/10 09:30:45;;;;;;;0.70;0.40;;;;;;;29.09;nan;101353.06;5010080;28;20121;-75
2022/07/10 09:33:25;;;;;;;1.65;0.60;;;;;;;29.38;nan;101356.38;5010736;28;20337;-75
2022/07/10 09:36:07;;;;;;;1.33;0.40;;;;;;;28.98;nan;101351.28;5009839;28;20119;-75
2022/07/10 09:38:44;;;;;;;1.95;0.60;;;;;;;27.53;nan;101350.25;5013936;28;20034;-75
2022/07/10 09:41:20;;;;;;;2.63;0.95;;;;;;;26.66;nan;101353.94;5015869;28;20525;-74
2022/07/10 09:43:58;;;;;;;2.78;0.70;;;;;;;25.98;nan;101355.38;5009661;28;20034;-73
2022/07/10 09:46:35;;;;;;;1.73;0.60;;;;;;;25.30;nan;101353.06;5008581;28;20073;-74
2022/07/10 09:49:04;;;;;;;1.88;0.50;;;;;;;24.12;nan;101354.94;5009770;28;20041;-74
2022/07/10 09:51:34;;;;;;;2.10;0.57;;;;;;;24.50;nan;101354.81;5009348;28;20543;-75
2022/07/10 09:54:02;;;;;;;1.42;0.45;;;;;;;25.90;nan;101349.47;5009397;28;20048;-74
2022/07/10 09:56:46;;;;;;;3.72;0.70;;;;;;;25.96;nan;101356.66;5011149;28;20864;-74
2022/07/10 09:59:14;;;;;;;1.95;0.70;;;;;;;26.23;nan;101346.19;5013532;28;20569;-75
2022/07/10 10:02:00;;;;;;;1.45;0.50;;;;;;;26.04;nan;101351.72;5013125;28;20129;-75
2022/07/10 10:04:29;;;;;;;1.95;0.57;;;;;;;25.40;nan;101350.59;5012991;28;20515;-75
2022/07/10 10:07:00;;;;;;;1.67;0.68;;;;;;;25.17;nan;101343.19;5013320;28;20079;-75
2022/07/10 10:09:41;;;;;;;1.60;0.60;;;;;;;26.58;nan;101338.03;5013308;28;20038;-75
2022/07/10 10:12:15;;;;;;;2.85;0.82;;;;;;;25.97;nan;101342.88;5012420;28;20026;-75
2022/07/10 10:14:41;;;;;;;1.23;0.50;;;;;;;25.31;nan;101341.16;5011096;28;20102;-75
2022/07/10 10:17:07;;;;;;;1.42;0.55;;;;;;;24.44;nan;101339.47;5012710;28;20100;-75
2022/07/10 10:22:29;;;;;;;1.52;0.70;;;;;;;24.99;nan;101334.06;4974251;28;20150;-75
2022/07/10 10:24:57;;;;;;;1.98;0.63;;;;;;;27.31;nan;101331.09;5002068;28;20045;-75
2022/07/10 10:27:23;;;;;;;1.58;0.70;;;;;;;26.87;nan;101335.38;5003764;28;20506;-75
2022/07/10 10:29:51;;;;;;;1.27;0.50;;;;;;;25.97;nan;101340.16;5012625;28;20038;-75
2022/07/10 10:32:16;;;;;;;2.60;0.80;;;;;;;26.75;nan;101332.69;5011904;28;20041;-75
2022/07/10 10:34:42;;;;;;;1.60;0.50;;;;;;;28.13;nan;101329.75;5012337;28;20033;-75
2022/07/10 10:37:27;;;;;;;2.33;0.60;;;;;;;29.28;nan;101334.47;5010324;28;20262;-75
2022/07/10 10:39:54;;;;;;;2.60;0.70;;;;;;;29.91;nan;101331.22;5007066;28;20578;-75
2022/07/10 10:42:39;;;;;;;2.80;0.70;;;;;;;30.46;nan;101338.13;5009072;28;20402;-76
2022/07/10 10:45:24;;;;;;;1.50;0.70;;;;;;;30.71;nan;101323.78;5010269;28;20407;-76
2022/07/10 10:48:04;;;;;;;2.17;0.63;;;;;;;28.59;nan;101321.44;5011570;28;20411;-76
2022/07/10 10:50:56;;;;;;;1.67;0.70;;;;;;;26.69;nan;101320.91;5011389;28;20034;-75
2022/07/10 10:53:28;;;;;;;3.05;0.93;;;;;;;27.31;nan;101317.50;5008970;28;20037;-75
2022/07/10 10:55:59;;;;;;;1.92;0.60;;;;;;;29.34;nan;101313.56;5011768;28;20606;-76
2022/07/10 10:58:25;;;;;;;2.60;0.68;;;;;;;28.98;nan;101330.34;4991317;28;20116;-76
2022/07/10 11:00:50;;;;;;;1.67;0.60;;;;;;;30.35;nan;101333.72;5010252;28;20069;-75
2022/07/10 11:03:21;;;;;;;1.98;0.70;;;;;;;31.63;nan;101329.50;5012633;28;20042;-76
2022/07/10 11:05:48;;;;;;;1.48;0.50;;;;;;;32.30;nan;101326.69;5013311;28;20026;-76
2022/07/10 11:08:14;;;;;;;2.17;0.60;;;;;;;32.74;nan;101320.50;5013924;28;20034;-76
2022/07/10 11:10:44;;;;;;;1.33;0.50;;;;;;;33.25;nan;101322.13;5020917;28;20033;-75
2022/07/10 11:13:12;;;;;;;2.03;0.50;;;;;;;34.44;nan;101323.50;5028227;28;20438;-75
2022/07/10 11:15:48;;;;;;;2.55;0.60;;;;;;;33.77;nan;101317.91;5030371;28;20100;-75
2022/07/10 11:18:16;;;;;;;2.00;0.50;;;;;;;32.97;nan;101319.00;5012593;28;20521;-74
2022/07/10 11:20:49;;;;;;;3.13;0.75;;;;;;;32.63;nan;101325.19;5014659;28;20056;-75
2022/07/10 11:23:32;;;;;;;1.35;0.60;;;;;;;33.44;nan;101312.09;5009324;28;20466;-76
2022/07/10 11:26:10;;;;;;;0.90;0.40;;;;;;;34.31;nan;101316.81;5007873;28;20040;-76
2022/07/10 11:28:54;;;;;;;0.98;0.50;;;;;;;32.30;nan;101318.47;5009347;28;20509;-75
2022/07/10 11:31:21;;;;;;;1.45;0.60;;;;;;;32.38;nan;101313.22;5006306;28;20510;-76
2022/07/10 11:33:48;;;;;;;2.03;0.80;;;;;;;33.50;nan;101299.19;5009491;28;20037;-76
2022/07/10 11:36:21;;;;;;;2.13;0.60;;;;;;;31.91;nan;101317.13;5008372;28;20053;-76
2022/07/10 11:38:47;;;;;;;1.50;0.50;;;;;;;33.14;nan;101308.50;5005453;28;20193;-75
2022/07/10 11:41:21;;;;;;;2.80;0.60;;;;;;;33.94;nan;101317.44;5008313;28;20192;-76
2022/07/10 11:43:54;;;;;;;1.67;0.50;;;;;;;33.50;nan;101305.50;5010629;28;20038;-76
2022/07/10 11:46:21;;;;;;;1.58;0.60;;;;;;;31.32;nan;101301.25;5013137;28;20661;-76
2022/07/10 11:48:49;;;;;;;1.85;0.60;;;;;;;31.88;nan;101295.81;5010199;28;20168;-76
2022/07/10 11:51:42;;;;;;;2.50;0.70;;;;;;;32.23;nan;101296.88;5005146;28;20045;-76
2022/07/10 11:54:11;;;;;;;2.67;0.70;;;;;;;30.21;nan;101300.59;5010866;28;20254;-76
2022/07/10 11:56:40;;;;;;;2.28;0.70;;;;;;;29.89;nan;101287.03;5007871;28;20469;-75
2022/07/10 11:59:08;;;;;;;2.60;0.80;;;;;;;30.86;nan;101293.00;5009189;28;20058;-76
2022/07/10 12:01:44;;;;;;;2.83;0.65;;;;;;;30.42;nan;101293.38;5004312;28;20088;-76